Latest Coastal Weather Observations for Point Fawcett

IDD60701

Issued at 8:51 pm CST Tuesday 5 May 2015 (issued every 10 minutes, with the page automatically refreshed every 10 minutes)

About coastal observations | Map of coastal stations | Coastal observations for NT | Marine services | Other Formats
Station Details ID: 200731 Name: POINT FAWCETT Lat: -11.76 Lon: 130.03 Height: 6.5 m
Data from the previous 72 hours. | See also: Recent months at Point Fawcett
Date/Time
CST
Temp

°C
Wind Pressure Rain
since 9am
mm
Weather Cloud Vis
km
Sea
Height
m
Swell
Dir
 
Speed
knots
Gust
knots
hPa Trend Height
m
Period
s
Dir
05/08:30pm 21.2 CALM 0 0 1010.1 - - - - - - - - -
05/08:00pm 21.6 CALM 0 0 1009.7 - - - - - - - - -
05/07:30pm 22.2 S 3 4 1009.4 - - - - - - - - -
05/07:00pm 23.2 CALM 0 0 1009.2 - - - - - - - - -
05/06:30pm 24.9 S 3 4 1009.0 - - - - - - - - -
05/06:00pm 26.8 SSW 3 4 1008.7 - - - - - - - - -
05/05:30pm 28.4 W 4 5 1008.6 - - - - - - - - -
05/05:00pm 29.3 W 4 6 1008.5 - - - - - - - - -
05/04:30pm 29.9 WSW 5 6 1008.3 - - - - - - - - -
05/04:00pm 30.0 W 4 6 1008.5 - - - - - - - - -
05/03:30pm 30.5 W 5 7 1008.7 - - - - - - - - -
05/03:00pm 30.9 W 5 7 1008.9 - - - - - - - - -
05/02:30pm 30.9 W 5 7 1009.5 - - - - - - - - -
05/02:00pm 30.9 WSW 5 8 1009.9 - - - - - - - - -
05/01:30pm 31.4 WSW 6 8 1010.2 - - - - - - - - -
05/01:00pm 31.0 W 6 8 1010.7 - - - - - - - - -
05/12:30pm 30.5 WNW 6 7 1011.1 - - - - - - - - -
05/12:00pm 30.6 WNW 4 5 1011.3 - - - - - - - - -
05/11:30am 30.2 NW 4 6 1011.8 - - - - - - - - -
05/11:00am 29.9 NNW 4 5 1011.9 - - - - - - - - -
05/10:30am 29.4 N 4 5 1012.1 - - - - - - - - -
05/10:00am 28.8 N 4 5 1012.3 - - - - - - - - -
05/09:30am 26.8 E 1 3 1012.1 - - - - - - - - -
05/09:00am 25.1 CALM 0 0 1011.9 - - - - - - - - -
05/08:30am 24.1 ESE 3 4 1011.7 - - - - - - - - -
05/08:00am 21.0 ESE 4 4 1011.4 - - - - - - - - -
05/07:30am 19.4 SE 4 4 1011.1 - - - - - - - - -
05/07:00am 18.7 ESE 4 5 1010.6 - - - - - - - - -
05/06:30am 18.8 SE 3 4 1010.4 - - - - - - - - -
05/06:00am 18.7 SSE 3 4 1010.3 - - - - - - - - -
05/05:30am 18.7 S 4 5 1010.4 - - - - - - - - -
05/05:00am 18.8 S 4 5 1010.4 - - - - - - - - -
05/04:30am 18.6 S 4 5 1010.3 - - - - - - - - -
05/04:00am 18.6 S 5 5 1010.4 - - - - - - - - -
05/03:30am 18.7 S 5 5 1010.5 - - - - - - - - -
05/03:00am 18.8 S 4 5 1010.5 - - - - - - - - -
05/02:30am 18.8 SSE 4 4 1010.8 - - - - - - - - -
05/02:00am 18.9 S 4 4 1011.0 - - - - - - - - -
05/01:30am 19.0 S 4 4 1011.1 - - - - - - - - -
05/01:00am 19.2 SSE 4 4 1011.4 - - - - - - - - -
05/12:30am 19.5 S 4 5 1011.5 - - - - - - - - -
05/12:00am 19.6 S 4 4 1011.7 - - - - - - - - -
 
Date/Time
CST
Temp

°C
Wind Pressure Rain
since 9am
mm
Weather Cloud Vis
km
Sea
Height
m
Swell
Dir
 
Speed
knots
Gust
knots
hPa Trend Height
m
Period
s
Dir
04/11:30pm 19.7 SE 4 4 1011.9 - - - - - - - - -
04/11:00pm 20.0 E 1 4 1012.0 - - - - - - - - -
04/10:30pm 20.2 E 4 5 1012.1 - - - - - - - - -
04/10:00pm 20.5 SSE 1 3 1012.1 - - - - - - - - -
04/09:30pm 20.8 SE 4 4 1012.2 - - - - - - - - -
04/09:00pm 21.2 SSE 4 4 1011.7 - - - - - - - - -
04/08:30pm 21.5 SSE 4 4 1011.5 - - - - - - - - -
04/08:00pm 21.9 SSE 3 4 1011.0 - - - - - - - - -
04/07:30pm 22.5 SSE 4 4 1010.6 - - - - - - - - -
04/07:00pm 23.6 SSE 4 5 1010.4 - - - - - - - - -
04/06:30pm 25.8 SSE 3 4 1010.3 - - - - - - - - -
04/06:00pm 27.9 S 4 5 1009.9 - - - - - - - - -
04/05:30pm 29.7 S 4 5 1009.8 - - - - - - - - -
04/05:00pm 29.4 S 4 6 1009.6 - - - - - - - - -
04/04:30pm 29.6 S 4 7 1009.7 - - - - - - - - -
04/04:00pm 30.5 SW 6 9 1009.9 - - - - - - - - -
04/03:30pm 31.6 SW 6 9 1010.0 - - - - - - - - -
04/03:00pm 31.4 SW 6 10 1010.2 - - - - - - - - -
04/02:30pm 31.3 SW 7 11 1010.6 - - - - - - - - -
04/02:00pm 31.5 SSW 7 10 1011.1 - - - - - - - - -
04/01:30pm 31.5 SSW 7 12 1011.4 - - - - - - - - -
04/01:00pm 31.4 SW 7 11 1011.8 - - - - - - - - -
04/12:30pm 30.7 SW 7 11 1012.2 - - - - - - - - -
04/12:00pm 31.3 SW 6 9 1012.5 - - - - - - - - -
04/11:30am 30.4 SW 4 7 1013.0 - - - - - - - - -
04/11:00am 30.3 SE 2 5 1013.3 - - - - - - - - -
04/10:30am 28.8 E 3 4 1013.5 - - - - - - - - -
04/10:00am 26.7 E 2 4 1013.5 - - - - - - - - -
04/09:30am 25.2 ESE 2 3 1013.4 - - - - - - - - -
04/09:00am 23.9 ESE 3 4 1013.1 - - - - - - - - -
04/08:30am 22.2 ESE 4 4 1013.0 - - - - - - - - -
04/08:00am 20.0 SE 4 5 1012.7 - - - - - - - - -
04/07:30am 18.7 SE 4 5 1012.3 - - - - - - - - -
04/07:00am 18.1 SE 4 5 1012.0 - - - - - - - - -
04/06:30am 18.1 SSE 5 6 1011.5 - - - - - - - - -
04/06:00am 17.9 SSE 4 5 1011.1 - - - - - - - - -
04/05:30am 17.9 S 3 4 1010.9 - - - - - - - - -
04/05:00am 17.9 S 3 4 1010.9 - - - - - - - - -
04/04:30am 17.8 S 3 4 1010.8 - - - - - - - - -
04/04:00am 17.8 SSW 3 4 1010.9 - - - - - - - - -
04/03:30am 17.9 S 4 5 1010.9 - - - - - - - - -
04/03:00am 17.9 SE 4 5 1010.8 - - - - - - - - -
04/02:30am 17.9 SE 4 5 1011.0 - - - - - - - - -
04/02:00am 17.9 SE 4 4 1011.1 - - - - - - - - -
04/01:30am 18.0 SE 4 5 1011.4 - - - - - - - - -
04/01:00am 17.9 SE 5 5 1011.7 - - - - - - - - -
04/12:30am 18.0 SSE 5 6 1012.0 - - - - - - - - -
04/12:00am 18.1 SSE 5 5 1012.0 - - - - - - - - -
 
Date/Time
CST
Temp

°C
Wind Pressure Rain
since 9am
mm
Weather Cloud Vis
km
Sea
Height
m
Swell
Dir
 
Speed
knots
Gust
knots
hPa Trend Height
m
Period
s
Dir
03/11:30pm 18.1 E 1 3 1012.1 - - - - - - - - -
03/11:00pm 18.1 E 4 5 1012.2 - - - - - - - - -
03/10:30pm 18.2 ENE 4 4 1012.3 - - - - - - - - -
03/10:00pm 18.4 ENE 4 4 1012.4 - - - - - - - - -
03/09:30pm 18.7 E 5 5 1012.5 - - - - - - - - -
03/09:00pm 19.1 ENE 3 3 1012.1 - - - - - - - - -
03/08:30pm 19.7 SE 3 4 1011.8 - - - - - - - - -
03/08:00pm 20.4 SSE 4 5 1011.3 - - - - - - - - -
03/07:30pm 21.0 SSE 4 5 1011.1 - - - - - - - - -
03/07:00pm 22.6 SSE 4 4 1010.8 - - - - - - - - -
03/06:30pm 25.0 S 3 4 1010.5 - - - - - - - - -
03/06:00pm 28.3 S 3 4 1010.4 - - - - - - - - -
03/05:30pm 28.9 S 4 5 1010.4 - - - - - - - - -
03/05:00pm 29.7 S 6 9 1010.4 - - - - - - - - -
03/04:30pm 30.1 S 5 7 1010.4 - - - - - - - - -
03/04:00pm 30.3 S 6 9 1010.4 - - - - - - - - -
03/03:30pm 31.1 S 5 8 1010.4 - - - - - - - - -
03/03:00pm 30.9 SSE 6 9 1010.5 - - - - - - - - -
03/02:30pm 30.8 S 7 11 1010.9 - - - - - - - - -
03/02:00pm 31.0 S 6 9 1011.3 - - - - - - - - -
03/01:30pm 31.3 S 6 10 1011.6 - - - - - - - - -
03/01:00pm 31.8 S 5 9 1012.0 - - - - - - - - -
03/12:30pm 31.5 S 5 8 1012.5 - - - - - - - - -
03/12:00pm 30.7 S 6 9 1012.9 - - - - - - - - -
03/11:30am 30.7 SSE 5 9 1013.5 - - - - - - - - -
03/11:00am 30.8 SE 5 7 1013.6 - - - - - - - - -
03/10:30am 30.3 E 3 7 1013.9 - - - - - - - - -
03/10:00am 29.3 ENE 4 6 1014.0 - - - - - - - - -
03/09:30am 27.5 E 5 7 1014.0 - - - - - - - - -
03/09:00am 25.8 E 5 7 1013.7 - - - - - - - - -
03/08:30am 22.6 ESE 4 6 1013.6 - - - - - - - - -
03/08:00am 19.8 ESE 5 7 1013.5 - - - - - - - - -
03/07:30am 17.5 E 5 6 1013.2 - - - - - - - - -
03/07:00am 16.5 ESE 5 6 1012.6 - - - - - - - - -
03/06:30am 16.2 E 5 5 1012.4 - - - - - - - - -
03/06:00am 16.2 ESE 5 5 1012.1 - - - - - - - - -
03/05:30am 16.3 SE 4 5 1012.1 - - - - - - - - -
03/05:00am 16.5 ESE 5 5 1011.9 - - - - - - - - -
03/04:30am 16.7 ESE 5 5 1011.8 - - - - - - - - -
03/04:00am 16.7 ESE 4 5 1011.6 - - - - - - - - -
03/03:30am 16.7 SE 4 5 1011.7 - - - - - - - - -
03/03:00am 16.7 SE 5 5 1011.7 - - - - - - - - -
03/02:30am 16.7 SE 5 6 1011.9 - - - - - - - - -
03/02:00am 17.0 SSE 6 7 1012.1 - - - - - - - - -
03/01:30am 16.9 SE 5 6 1012.1 - - - - - - - - -
03/01:00am 16.9 E 5 5 1012.4 - - - - - - - - -
03/12:30am 17.4 E 5 5 1012.6 - - - - - - - - -
03/12:00am 18.1 ENE 5 6 1012.5 - - - - - - - - -
 
Date/Time
CST
Temp

°C
Wind Pressure Rain
since 9am
mm
Weather Cloud Vis
km
Sea
Height
m
Swell
Dir
 
Speed
knots
Gust
knots
hPa Trend Height
m
Period
s
Dir
02/11:30pm 18.5 E 6 7 1012.6 - - - - - - - - -
02/11:00pm 19.1 E 6 7 1012.5 - - - - - - - - -
02/10:30pm 18.6 E 6 7 1012.5 - - - - - - - - -
02/10:00pm 18.7 ESE 6 7 1012.4 - - - - - - - - -
02/09:30pm 18.8 ESE 6 8 1012.4 - - - - - - - - -
02/09:00pm 19.2 E 5 6 1011.9 - - - - - - - - -

Other Formats:

Comma delimited format used in spreadsheet applications
http://www.bom.gov.au/fwo/IDD60701/IDD60701.94122.axf

JavaScript Object Notation format (JSON) in row-major order
http://www.bom.gov.au/fwo/IDD60701/IDD60701.94122.json